sensor_id;sensor_type;location;lat;lon;timestamp;P1;durP1;ratioP1;P2;durP2;ratioP2
21192;SDS011;10754;51.106;7.164;2023-09-19T00:01:52;2.78;;;1.23;;
21192;SDS011;10754;51.106;7.164;2023-09-19T00:04:18;2.35;;;0.98;;
21192;SDS011;10754;51.106;7.164;2023-09-19T00:06:48;2.58;;;1.15;;
21192;SDS011;10754;51.106;7.164;2023-09-19T00:09:15;2.72;;;1.23;;
21192;SDS011;10754;51.106;7.164;2023-09-19T00:11:40;4.32;;;1.58;;
21192;SDS011;10754;51.106;7.164;2023-09-19T00:14:06;2.80;;;1.25;;
21192;SDS011;10754;51.106;7.164;2023-09-19T00:16:33;3.20;;;1.33;;
21192;SDS011;10754;51.106;7.164;2023-09-19T00:19:00;4.57;;;1.15;;
21192;SDS011;10754;51.106;7.164;2023-09-19T00:21:26;3.05;;;1.40;;
21192;SDS011;10754;51.106;7.164;2023-09-19T00:23:51;4.32;;;1.15;;
21192;SDS011;10754;51.106;7.164;2023-09-19T00:26:17;2.85;;;1.30;;
21192;SDS011;10754;51.106;7.164;2023-09-19T00:28:43;2.05;;;1.10;;
21192;SDS011;10754;51.106;7.164;2023-09-19T00:31:09;3.40;;;1.52;;
21192;SDS011;10754;51.106;7.164;2023-09-19T00:33:34;3.33;;;1.25;;
21192;SDS011;10754;51.106;7.164;2023-09-19T00:36:00;2.80;;;1.20;;
21192;SDS011;10754;51.106;7.164;2023-09-19T00:38:29;2.97;;;1.27;;
21192;SDS011;10754;51.106;7.164;2023-09-19T00:40:54;2.58;;;1.30;;
21192;SDS011;10754;51.106;7.164;2023-09-19T00:43:22;3.90;;;2.00;;
21192;SDS011;10754;51.106;7.164;2023-09-19T00:45:49;2.80;;;1.33;;
21192;SDS011;10754;51.106;7.164;2023-09-19T00:48:19;4.05;;;1.35;;
21192;SDS011;10754;51.106;7.164;2023-09-19T00:50:46;4.70;;;1.35;;
21192;SDS011;10754;51.106;7.164;2023-09-19T00:53:14;3.30;;;1.17;;
21192;SDS011;10754;51.106;7.164;2023-09-19T00:55:44;4.65;;;1.63;;
21192;SDS011;10754;51.106;7.164;2023-09-19T00:58:11;2.42;;;1.48;;
21192;SDS011;10754;51.106;7.164;2023-09-19T01:00:36;3.47;;;1.60;;
21192;SDS011;10754;51.106;7.164;2023-09-19T01:03:03;5.75;;;1.70;;
21192;SDS011;10754;51.106;7.164;2023-09-19T01:05:29;4.60;;;1.40;;
21192;SDS011;10754;51.106;7.164;2023-09-19T01:07:55;5.25;;;1.65;;
21192;SDS011;10754;51.106;7.164;2023-09-19T01:10:20;5.28;;;1.30;;
21192;SDS011;10754;51.106;7.164;2023-09-19T01:15:25;4.07;;;1.58;;
21192;SDS011;10754;51.106;7.164;2023-09-19T01:20:45;6.00;;;1.42;;
21192;SDS011;10754;51.106;7.164;2023-09-19T01:23:24;4.03;;;1.65;;
21192;SDS011;10754;51.106;7.164;2023-09-19T01:29:16;3.92;;;1.38;;
21192;SDS011;10754;51.106;7.164;2023-09-19T01:32:04;5.03;;;1.58;;
21192;SDS011;10754;51.106;7.164;2023-09-19T01:37:18;4.80;;;1.70;;
21192;SDS011;10754;51.106;7.164;2023-09-19T01:39:55;5.07;;;1.52;;
21192;SDS011;10754;51.106;7.164;2023-09-19T01:45:11;4.50;;;1.35;;
21192;SDS011;10754;51.106;7.164;2023-09-19T01:47:42;6.18;;;1.30;;
21192;SDS011;10754;51.106;7.164;2023-09-19T01:50:34;4.22;;;1.80;;
21192;SDS011;10754;51.106;7.164;2023-09-19T01:53:14;3.50;;;1.65;;
21192;SDS011;10754;51.106;7.164;2023-09-19T01:55:47;3.42;;;1.38;;
21192;SDS011;10754;51.106;7.164;2023-09-19T02:00:47;3.80;;;1.50;;
21192;SDS011;10754;51.106;7.164;2023-09-19T02:03:16;6.75;;;1.88;;
21192;SDS011;10754;51.106;7.164;2023-09-19T02:05:48;4.32;;;1.50;;
21192;SDS011;10754;51.106;7.164;2023-09-19T02:08:16;2.97;;;1.10;;
21192;SDS011;10754;51.106;7.164;2023-09-19T02:10:44;3.97;;;1.50;;
21192;SDS011;10754;51.106;7.164;2023-09-19T02:13:13;6.30;;;1.98;;
21192;SDS011;10754;51.106;7.164;2023-09-19T02:15:41;7.63;;;1.95;;
21192;SDS011;10754;51.106;7.164;2023-09-19T02:18:09;7.40;;;2.03;;
21192;SDS011;10754;51.106;7.164;2023-09-19T02:20:34;7.47;;;2.33;;
21192;SDS011;10754;51.106;7.164;2023-09-19T02:23:00;2.75;;;1.48;;
21192;SDS011;10754;51.106;7.164;2023-09-19T02:25:27;3.53;;;1.52;;
21192;SDS011;10754;51.106;7.164;2023-09-19T02:27:52;3.55;;;1.50;;
21192;SDS011;10754;51.106;7.164;2023-09-19T02:30:19;6.70;;;2.05;;
21192;SDS011;10754;51.106;7.164;2023-09-19T02:32:48;5.55;;;1.92;;
21192;SDS011;10754;51.106;7.164;2023-09-19T02:35:14;3.83;;;1.77;;
21192;SDS011;10754;51.106;7.164;2023-09-19T02:37:40;7.28;;;1.90;;
21192;SDS011;10754;51.106;7.164;2023-09-19T02:40:06;3.78;;;1.60;;
21192;SDS011;10754;51.106;7.164;2023-09-19T02:42:43;4.45;;;1.50;;
21192;SDS011;10754;51.106;7.164;2023-09-19T02:45:14;3.95;;;1.67;;
21192;SDS011;10754;51.106;7.164;2023-09-19T02:47:42;9.35;;;2.10;;
21192;SDS011;10754;51.106;7.164;2023-09-19T02:50:09;3.85;;;1.40;;
21192;SDS011;10754;51.106;7.164;2023-09-19T02:52:38;3.40;;;1.30;;
21192;SDS011;10754;51.106;7.164;2023-09-19T02:55:08;4.68;;;1.95;;
21192;SDS011;10754;51.106;7.164;2023-09-19T02:57:34;5.97;;;1.52;;
21192;SDS011;10754;51.106;7.164;2023-09-19T03:00:01;4.97;;;1.67;;
21192;SDS011;10754;51.106;7.164;2023-09-19T03:02:29;5.85;;;1.88;;
21192;SDS011;10754;51.106;7.164;2023-09-19T03:04:57;7.47;;;1.95;;
21192;SDS011;10754;51.106;7.164;2023-09-19T03:07:25;3.40;;;1.55;;
21192;SDS011;10754;51.106;7.164;2023-09-19T03:09:51;6.15;;;2.00;;
21192;SDS011;10754;51.106;7.164;2023-09-19T03:12:18;3.53;;;1.45;;
21192;SDS011;10754;51.106;7.164;2023-09-19T03:14:43;4.88;;;1.65;;
21192;SDS011;10754;51.106;7.164;2023-09-19T03:17:09;4.53;;;1.40;;
21192;SDS011;10754;51.106;7.164;2023-09-19T03:19:34;3.80;;;1.75;;
21192;SDS011;10754;51.106;7.164;2023-09-19T03:22:00;2.47;;;1.33;;
21192;SDS011;10754;51.106;7.164;2023-09-19T03:24:25;3.88;;;1.25;;
21192;SDS011;10754;51.106;7.164;2023-09-19T03:26:51;4.38;;;1.55;;
21192;SDS011;10754;51.106;7.164;2023-09-19T03:29:17;5.38;;;1.65;;
21192;SDS011;10754;51.106;7.164;2023-09-19T03:31:43;5.68;;;1.83;;
21192;SDS011;10754;51.106;7.164;2023-09-19T03:34:08;6.70;;;2.05;;
21192;SDS011;10754;51.106;7.164;2023-09-19T03:36:34;3.38;;;1.30;;
21192;SDS011;10754;51.106;7.164;2023-09-19T03:39:01;6.72;;;1.40;;
21192;SDS011;10754;51.106;7.164;2023-09-19T03:41:29;2.70;;;1.52;;
21192;SDS011;10754;51.106;7.164;2023-09-19T03:43:56;4.93;;;1.48;;
21192;SDS011;10754;51.106;7.164;2023-09-19T03:46:21;3.50;;;1.60;;
21192;SDS011;10754;51.106;7.164;2023-09-19T03:48:47;5.63;;;1.75;;
21192;SDS011;10754;51.106;7.164;2023-09-19T03:51:12;4.55;;;1.67;;
21192;SDS011;10754;51.106;7.164;2023-09-19T03:53:38;3.60;;;1.30;;
21192;SDS011;10754;51.106;7.164;2023-09-19T03:56:03;5.32;;;1.70;;
21192;SDS011;10754;51.106;7.164;2023-09-19T03:58:29;3.85;;;1.50;;
21192;SDS011;10754;51.106;7.164;2023-09-19T04:00:55;5.15;;;1.75;;
21192;SDS011;10754;51.106;7.164;2023-09-19T04:03:21;6.53;;;2.17;;
21192;SDS011;10754;51.106;7.164;2023-09-19T04:05:47;7.80;;;2.10;;
21192;SDS011;10754;51.106;7.164;2023-09-19T04:08:13;3.53;;;1.40;;
21192;SDS011;10754;51.106;7.164;2023-09-19T04:10:41;5.60;;;1.33;;
21192;SDS011;10754;51.106;7.164;2023-09-19T04:13:07;5.15;;;2.03;;
21192;SDS011;10754;51.106;7.164;2023-09-19T04:15:32;9.02;;;2.90;;
21192;SDS011;10754;51.106;7.164;2023-09-19T04:17:58;4.65;;;1.73;;
21192;SDS011;10754;51.106;7.164;2023-09-19T04:20:23;5.43;;;1.48;;
21192;SDS011;10754;51.106;7.164;2023-09-19T04:22:49;4.55;;;1.88;;
21192;SDS011;10754;51.106;7.164;2023-09-19T04:25:15;6.68;;;2.10;;
21192;SDS011;10754;51.106;7.164;2023-09-19T04:27:40;4.07;;;1.60;;
21192;SDS011;10754;51.106;7.164;2023-09-19T04:30:07;5.35;;;2.03;;
21192;SDS011;10754;51.106;7.164;2023-09-19T04:32:37;4.80;;;1.60;;
21192;SDS011;10754;51.106;7.164;2023-09-19T04:35:09;4.28;;;1.58;;
21192;SDS011;10754;51.106;7.164;2023-09-19T04:37:44;6.20;;;2.25;;
21192;SDS011;10754;51.106;7.164;2023-09-19T04:40:10;6.53;;;2.00;;
21192;SDS011;10754;51.106;7.164;2023-09-19T04:42:37;5.00;;;1.95;;
21192;SDS011;10754;51.106;7.164;2023-09-19T04:45:03;5.80;;;2.17;;
21192;SDS011;10754;51.106;7.164;2023-09-19T04:47:29;4.10;;;1.55;;
21192;SDS011;10754;51.106;7.164;2023-09-19T04:49:55;5.60;;;2.00;;
21192;SDS011;10754;51.106;7.164;2023-09-19T04:52:23;7.88;;;2.22;;
21192;SDS011;10754;51.106;7.164;2023-09-19T04:54:48;5.10;;;1.58;;
21192;SDS011;10754;51.106;7.164;2023-09-19T04:57:14;7.57;;;2.30;;
21192;SDS011;10754;51.106;7.164;2023-09-19T04:59:40;4.30;;;2.13;;
21192;SDS011;10754;51.106;7.164;2023-09-19T05:02:06;4.93;;;2.22;;
21192;SDS011;10754;51.106;7.164;2023-09-19T05:04:33;6.00;;;1.65;;
21192;SDS011;10754;51.106;7.164;2023-09-19T05:06:59;4.82;;;1.60;;
21192;SDS011;10754;51.106;7.164;2023-09-19T05:09:26;4.43;;;1.98;;
21192;SDS011;10754;51.106;7.164;2023-09-19T05:11:51;6.28;;;2.08;;
21192;SDS011;10754;51.106;7.164;2023-09-19T05:14:17;3.75;;;1.38;;
21192;SDS011;10754;51.106;7.164;2023-09-19T05:16:44;5.18;;;2.10;;
21192;SDS011;10754;51.106;7.164;2023-09-19T05:19:09;5.03;;;2.00;;
21192;SDS011;10754;51.106;7.164;2023-09-19T05:21:37;6.45;;;2.13;;
21192;SDS011;10754;51.106;7.164;2023-09-19T05:24:04;5.68;;;2.05;;
21192;SDS011;10754;51.106;7.164;2023-09-19T05:26:31;6.28;;;1.77;;
21192;SDS011;10754;51.106;7.164;2023-09-19T05:28:57;4.15;;;1.60;;
21192;SDS011;10754;51.106;7.164;2023-09-19T05:31:22;3.10;;;1.42;;
21192;SDS011;10754;51.106;7.164;2023-09-19T05:33:50;6.45;;;2.25;;
21192;SDS011;10754;51.106;7.164;2023-09-19T05:36:16;3.90;;;1.65;;
21192;SDS011;10754;51.106;7.164;2023-09-19T05:38:42;5.07;;;2.03;;
21192;SDS011;10754;51.106;7.164;2023-09-19T05:41:09;4.25;;;1.92;;
21192;SDS011;10754;51.106;7.164;2023-09-19T05:43:35;4.63;;;1.60;;
21192;SDS011;10754;51.106;7.164;2023-09-19T05:46:02;8.73;;;2.58;;
21192;SDS011;10754;51.106;7.164;2023-09-19T05:48:28;6.78;;;2.35;;
21192;SDS011;10754;51.106;7.164;2023-09-19T05:50:53;5.35;;;2.33;;
21192;SDS011;10754;51.106;7.164;2023-09-19T05:53:19;8.02;;;2.78;;
21192;SDS011;10754;51.106;7.164;2023-09-19T05:55:44;5.82;;;2.10;;
21192;SDS011;10754;51.106;7.164;2023-09-19T05:58:10;6.55;;;1.73;;
21192;SDS011;10754;51.106;7.164;2023-09-19T06:00:39;5.60;;;1.55;;
21192;SDS011;10754;51.106;7.164;2023-09-19T06:03:06;6.22;;;2.00;;
21192;SDS011;10754;51.106;7.164;2023-09-19T06:05:33;4.35;;;1.90;;
21192;SDS011;10754;51.106;7.164;2023-09-19T06:07:58;5.97;;;1.60;;
21192;SDS011;10754;51.106;7.164;2023-09-19T06:10:25;7.43;;;1.85;;
21192;SDS011;10754;51.106;7.164;2023-09-19T06:12:52;7.38;;;2.13;;
21192;SDS011;10754;51.106;7.164;2023-09-19T06:15:20;6.40;;;2.00;;
21192;SDS011;10754;51.106;7.164;2023-09-19T06:17:50;7.97;;;2.60;;
21192;SDS011;10754;51.106;7.164;2023-09-19T06:20:20;7.50;;;1.88;;
21192;SDS011;10754;51.106;7.164;2023-09-19T06:22:47;6.03;;;2.15;;
21192;SDS011;10754;51.106;7.164;2023-09-19T06:25:14;5.90;;;1.65;;
21192;SDS011;10754;51.106;7.164;2023-09-19T06:27:47;5.22;;;1.63;;
21192;SDS011;10754;51.106;7.164;2023-09-19T06:30:17;6.38;;;2.42;;
21192;SDS011;10754;51.106;7.164;2023-09-19T06:32:43;5.32;;;2.25;;
21192;SDS011;10754;51.106;7.164;2023-09-19T06:35:13;5.05;;;2.40;;
21192;SDS011;10754;51.106;7.164;2023-09-19T06:37:39;5.55;;;1.95;;
21192;SDS011;10754;51.106;7.164;2023-09-19T06:40:07;4.93;;;1.65;;
21192;SDS011;10754;51.106;7.164;2023-09-19T06:42:39;7.13;;;2.10;;
21192;SDS011;10754;51.106;7.164;2023-09-19T06:45:06;6.05;;;2.13;;
21192;SDS011;10754;51.106;7.164;2023-09-19T06:47:33;5.32;;;1.70;;
21192;SDS011;10754;51.106;7.164;2023-09-19T06:49:58;4.65;;;1.85;;
21192;SDS011;10754;51.106;7.164;2023-09-19T06:52:23;6.63;;;2.35;;
21192;SDS011;10754;51.106;7.164;2023-09-19T06:54:52;5.63;;;1.67;;
21192;SDS011;10754;51.106;7.164;2023-09-19T06:57:18;6.50;;;2.10;;
21192;SDS011;10754;51.106;7.164;2023-09-19T06:59:44;5.30;;;1.88;;
21192;SDS011;10754;51.106;7.164;2023-09-19T07:02:10;5.55;;;1.88;;
21192;SDS011;10754;51.106;7.164;2023-09-19T07:04:36;5.53;;;2.05;;
21192;SDS011;10754;51.106;7.164;2023-09-19T07:07:01;4.60;;;1.52;;
21192;SDS011;10754;51.106;7.164;2023-09-19T07:09:27;10.98;;;2.50;;
21192;SDS011;10754;51.106;7.164;2023-09-19T07:11:53;7.25;;;1.92;;
21192;SDS011;10754;51.106;7.164;2023-09-19T07:14:19;5.53;;;2.13;;
21192;SDS011;10754;51.106;7.164;2023-09-19T07:16:44;6.40;;;2.30;;
21192;SDS011;10754;51.106;7.164;2023-09-19T07:19:10;4.53;;;1.70;;
21192;SDS011;10754;51.106;7.164;2023-09-19T07:21:36;6.70;;;1.90;;
21192;SDS011;10754;51.106;7.164;2023-09-19T07:24:03;3.80;;;2.00;;
21192;SDS011;10754;51.106;7.164;2023-09-19T07:26:29;5.35;;;1.80;;
21192;SDS011;10754;51.106;7.164;2023-09-19T07:28:56;4.45;;;1.90;;
21192;SDS011;10754;51.106;7.164;2023-09-19T07:31:22;6.72;;;1.60;;
21192;SDS011;10754;51.106;7.164;2023-09-19T07:33:48;4.82;;;2.05;;
21192;SDS011;10754;51.106;7.164;2023-09-19T07:36:14;6.43;;;2.08;;
21192;SDS011;10754;51.106;7.164;2023-09-19T07:38:40;6.78;;;1.63;;
21192;SDS011;10754;51.106;7.164;2023-09-19T07:41:07;6.93;;;2.53;;
21192;SDS011;10754;51.106;7.164;2023-09-19T07:43:34;6.10;;;2.45;;
21192;SDS011;10754;51.106;7.164;2023-09-19T07:46:06;8.52;;;2.03;;
21192;SDS011;10754;51.106;7.164;2023-09-19T07:48:34;6.85;;;1.65;;
21192;SDS011;10754;51.106;7.164;2023-09-19T07:51:04;9.60;;;2.45;;
21192;SDS011;10754;51.106;7.164;2023-09-19T07:53:31;5.55;;;2.20;;
21192;SDS011;10754;51.106;7.164;2023-09-19T07:56:06;7.45;;;2.15;;
21192;SDS011;10754;51.106;7.164;2023-09-19T07:58:33;5.07;;;1.88;;
21192;SDS011;10754;51.106;7.164;2023-09-19T08:01:03;6.03;;;2.25;;
21192;SDS011;10754;51.106;7.164;2023-09-19T08:03:29;8.20;;;2.30;;
21192;SDS011;10754;51.106;7.164;2023-09-19T08:05:56;5.55;;;1.58;;
21192;SDS011;10754;51.106;7.164;2023-09-19T08:08:22;7.30;;;2.10;;
21192;SDS011;10754;51.106;7.164;2023-09-19T08:10:52;7.15;;;2.28;;
21192;SDS011;10754;51.106;7.164;2023-09-19T08:13:24;5.32;;;2.13;;
21192;SDS011;10754;51.106;7.164;2023-09-19T08:15:50;7.03;;;1.92;;
21192;SDS011;10754;51.106;7.164;2023-09-19T08:18:19;8.10;;;2.47;;
21192;SDS011;10754;51.106;7.164;2023-09-19T08:20:50;5.25;;;1.83;;
21192;SDS011;10754;51.106;7.164;2023-09-19T08:23:17;7.60;;;2.63;;
21192;SDS011;10754;51.106;7.164;2023-09-19T08:25:45;5.68;;;2.17;;
21192;SDS011;10754;51.106;7.164;2023-09-19T08:28:11;7.97;;;2.38;;
21192;SDS011;10754;51.106;7.164;2023-09-19T08:30:39;8.02;;;2.10;;
21192;SDS011;10754;51.106;7.164;2023-09-19T08:33:06;3.97;;;2.17;;
21192;SDS011;10754;51.106;7.164;2023-09-19T08:35:32;7.50;;;2.20;;
21192;SDS011;10754;51.106;7.164;2023-09-19T08:37:58;7.03;;;2.40;;
21192;SDS011;10754;51.106;7.164;2023-09-19T08:40:29;6.00;;;1.80;;
21192;SDS011;10754;51.106;7.164;2023-09-19T08:42:58;9.90;;;2.70;;
21192;SDS011;10754;51.106;7.164;2023-09-19T08:45:24;5.20;;;1.88;;
21192;SDS011;10754;51.106;7.164;2023-09-19T08:50:31;6.10;;;2.53;;
21192;SDS011;10754;51.106;7.164;2023-09-19T08:53:01;5.07;;;2.08;;
21192;SDS011;10754;51.106;7.164;2023-09-19T08:55:29;7.35;;;2.08;;
21192;SDS011;10754;51.106;7.164;2023-09-19T08:58:00;6.43;;;2.08;;
21192;SDS011;10754;51.106;7.164;2023-09-19T09:00:28;5.55;;;1.90;;
21192;SDS011;10754;51.106;7.164;2023-09-19T09:02:55;5.47;;;1.95;;
21192;SDS011;10754;51.106;7.164;2023-09-19T09:05:22;5.00;;;2.05;;
21192;SDS011;10754;51.106;7.164;2023-09-19T09:07:49;6.05;;;2.00;;
21192;SDS011;10754;51.106;7.164;2023-09-19T09:10:21;6.20;;;2.05;;
21192;SDS011;10754;51.106;7.164;2023-09-19T09:12:48;4.88;;;1.92;;
21192;SDS011;10754;51.106;7.164;2023-09-19T09:15:19;4.05;;;1.52;;
21192;SDS011;10754;51.106;7.164;2023-09-19T09:17:48;3.85;;;1.52;;
21192;SDS011;10754;51.106;7.164;2023-09-19T09:20:15;4.22;;;1.85;;
21192;SDS011;10754;51.106;7.164;2023-09-19T09:22:50;5.57;;;1.48;;
21192;SDS011;10754;51.106;7.164;2023-09-19T09:25:17;5.60;;;1.80;;
21192;SDS011;10754;51.106;7.164;2023-09-19T09:27:43;5.15;;;1.75;;
21192;SDS011;10754;51.106;7.164;2023-09-19T09:30:10;5.13;;;1.75;;
21192;SDS011;10754;51.106;7.164;2023-09-19T09:33:09;4.00;;;1.50;;
21192;SDS011;10754;51.106;7.164;2023-09-19T09:35:36;4.57;;;1.80;;
21192;SDS011;10754;51.106;7.164;2023-09-19T09:38:17;3.15;;;1.50;;
21192;SDS011;10754;51.106;7.164;2023-09-19T09:40:50;4.50;;;1.52;;
21192;SDS011;10754;51.106;7.164;2023-09-19T09:43:26;7.97;;;1.90;;
21192;SDS011;10754;51.106;7.164;2023-09-19T09:48:55;4.95;;;1.52;;
21192;SDS011;10754;51.106;7.164;2023-09-19T09:51:39;4.38;;;1.67;;
21192;SDS011;10754;51.106;7.164;2023-09-19T09:54:10;5.32;;;1.42;;
21192;SDS011;10754;51.106;7.164;2023-09-19T09:56:58;4.70;;;1.70;;
21192;SDS011;10754;51.106;7.164;2023-09-19T10:00:07;3.65;;;1.10;;
21192;SDS011;10754;51.106;7.164;2023-09-19T10:02:18;4.28;;;1.75;;
21192;SDS011;10754;51.106;7.164;2023-09-19T10:04:53;2.75;;;1.15;;
21192;SDS011;10754;51.106;7.164;2023-09-19T10:07:28;4.05;;;1.45;;
21192;SDS011;10754;51.106;7.164;2023-09-19T10:10:04;4.85;;;1.98;;
21192;SDS011;10754;51.106;7.164;2023-09-19T10:12:45;4.13;;;2.00;;
21192;SDS011;10754;51.106;7.164;2023-09-19T10:15:13;5.93;;;1.73;;
21192;SDS011;10754;51.106;7.164;2023-09-19T10:17:42;4.97;;;1.60;;
21192;SDS011;10754;51.106;7.164;2023-09-19T10:20:09;3.90;;;1.40;;
21192;SDS011;10754;51.106;7.164;2023-09-19T10:22:58;3.83;;;1.60;;
21192;SDS011;10754;51.106;7.164;2023-09-19T10:25:25;3.90;;;1.70;;
21192;SDS011;10754;51.106;7.164;2023-09-19T10:28:01;4.10;;;1.60;;
21192;SDS011;10754;51.106;7.164;2023-09-19T10:30:31;3.40;;;1.40;;
21192;SDS011;10754;51.106;7.164;2023-09-19T10:33:01;4.47;;;1.30;;
21192;SDS011;10754;51.106;7.164;2023-09-19T10:35:29;2.88;;;1.25;;
21192;SDS011;10754;51.106;7.164;2023-09-19T10:37:57;3.05;;;1.35;;
21192;SDS011;10754;51.106;7.164;2023-09-19T10:40:26;3.40;;;1.40;;
21192;SDS011;10754;51.106;7.164;2023-09-19T10:42:59;3.15;;;1.17;;
21192;SDS011;10754;51.106;7.164;2023-09-19T10:45:28;2.97;;;1.52;;
21192;SDS011;10754;51.106;7.164;2023-09-19T10:48:00;3.75;;;1.83;;
21192;SDS011;10754;51.106;7.164;2023-09-19T10:50:29;3.50;;;1.27;;
21192;SDS011;10754;51.106;7.164;2023-09-19T10:53:10;3.40;;;1.48;;
21192;SDS011;10754;51.106;7.164;2023-09-19T10:55:37;2.35;;;1.20;;
21192;SDS011;10754;51.106;7.164;2023-09-19T10:58:03;3.15;;;1.20;;
21192;SDS011;10754;51.106;7.164;2023-09-19T11:00:58;4.47;;;1.15;;
21192;SDS011;10754;51.106;7.164;2023-09-19T11:03:35;3.25;;;1.20;;
21192;SDS011;10754;51.106;7.164;2023-09-19T11:06:03;4.43;;;1.60;;
21192;SDS011;10754;51.106;7.164;2023-09-19T11:11:41;3.38;;;1.27;;
21192;SDS011;10754;51.106;7.164;2023-09-19T11:14:14;3.03;;;1.20;;
21192;SDS011;10754;51.106;7.164;2023-09-19T11:16:39;2.38;;;1.40;;
21192;SDS011;10754;51.106;7.164;2023-09-19T11:19:35;3.28;;;1.48;;
21192;SDS011;10754;51.106;7.164;2023-09-19T11:30:43;2.97;;;1.15;;
21192;SDS011;10754;51.106;7.164;2023-09-19T11:43:46;3.47;;;1.17;;
21192;SDS011;10754;51.106;7.164;2023-09-19T11:46:19;3.25;;;1.48;;
21192;SDS011;10754;51.106;7.164;2023-09-19T11:48:47;3.28;;;1.23;;
21192;SDS011;10754;51.106;7.164;2023-09-19T11:51:15;3.65;;;1.48;;
21192;SDS011;10754;51.106;7.164;2023-09-19T11:53:47;3.50;;;1.55;;
21192;SDS011;10754;51.106;7.164;2023-09-19T11:56:19;2.90;;;1.08;;
21192;SDS011;10754;51.106;7.164;2023-09-19T11:58:51;2.55;;;0.93;;
21192;SDS011;10754;51.106;7.164;2023-09-19T12:01:22;4.35;;;1.35;;
21192;SDS011;10754;51.106;7.164;2023-09-19T12:03:54;4.25;;;1.65;;
21192;SDS011;10754;51.106;7.164;2023-09-19T12:06:22;5.30;;;1.80;;
21192;SDS011;10754;51.106;7.164;2023-09-19T12:08:49;3.08;;;1.35;;
21192;SDS011;10754;51.106;7.164;2023-09-19T12:11:16;3.33;;;1.35;;
21192;SDS011;10754;51.106;7.164;2023-09-19T12:13:43;3.15;;;1.45;;
21192;SDS011;10754;51.106;7.164;2023-09-19T12:16:16;5.03;;;1.58;;
21192;SDS011;10754;51.106;7.164;2023-09-19T12:18:47;4.15;;;1.55;;
21192;SDS011;10754;51.106;7.164;2023-09-19T12:21:28;3.53;;;1.50;;
21192;SDS011;10754;51.106;7.164;2023-09-19T12:26:29;4.28;;;1.48;;
21192;SDS011;10754;51.106;7.164;2023-09-19T12:29:02;2.90;;;1.35;;
21192;SDS011;10754;51.106;7.164;2023-09-19T12:31:29;4.85;;;1.35;;
21192;SDS011;10754;51.106;7.164;2023-09-19T12:34:01;2.08;;;1.27;;
21192;SDS011;10754;51.106;7.164;2023-09-19T12:36:27;5.53;;;1.45;;
21192;SDS011;10754;51.106;7.164;2023-09-19T12:38:58;3.90;;;1.50;;
21192;SDS011;10754;51.106;7.164;2023-09-19T12:41:27;1.75;;;1.00;;
21192;SDS011;10754;51.106;7.164;2023-09-19T12:43:53;4.18;;;1.40;;
21192;SDS011;10754;51.106;7.164;2023-09-19T12:46:20;3.33;;;1.13;;
21192;SDS011;10754;51.106;7.164;2023-09-19T12:49:14;2.10;;;1.13;;
21192;SDS011;10754;51.106;7.164;2023-09-19T12:51:42;2.75;;;1.08;;
21192;SDS011;10754;51.106;7.164;2023-09-19T12:54:08;1.58;;;1.08;;
21192;SDS011;10754;51.106;7.164;2023-09-19T12:56:42;3.17;;;1.52;;
21192;SDS011;10754;51.106;7.164;2023-09-19T12:59:09;2.85;;;1.52;;
21192;SDS011;10754;51.106;7.164;2023-09-19T13:01:38;3.88;;;1.40;;
21192;SDS011;10754;51.106;7.164;2023-09-19T13:04:17;3.58;;;1.45;;
21192;SDS011;10754;51.106;7.164;2023-09-19T13:06:54;2.45;;;1.15;;
21192;SDS011;10754;51.106;7.164;2023-09-19T13:09:25;2.63;;;1.23;;
21192;SDS011;10754;51.106;7.164;2023-09-19T13:11:59;4.95;;;1.33;;
21192;SDS011;10754;51.106;7.164;2023-09-19T13:14:27;2.47;;;1.33;;
21192;SDS011;10754;51.106;7.164;2023-09-19T13:16:54;3.83;;;1.15;;
21192;SDS011;10754;51.106;7.164;2023-09-19T13:20:05;5.18;;;1.30;;
21192;SDS011;10754;51.106;7.164;2023-09-19T13:25:15;7.53;;;1.75;;
21192;SDS011;10754;51.106;7.164;2023-09-19T13:27:45;1.55;;;0.90;;
21192;SDS011;10754;51.106;7.164;2023-09-19T13:30:25;2.92;;;1.08;;
21192;SDS011;10754;51.106;7.164;2023-09-19T13:33:10;1.73;;;0.82;;
21192;SDS011;10754;51.106;7.164;2023-09-19T13:35:38;3.03;;;1.15;;
21192;SDS011;10754;51.106;7.164;2023-09-19T13:38:07;4.28;;;1.38;;
21192;SDS011;10754;51.106;7.164;2023-09-19T13:40:40;3.70;;;1.20;;
21192;SDS011;10754;51.106;7.164;2023-09-19T13:43:08;2.78;;;1.15;;
21192;SDS011;10754;51.106;7.164;2023-09-19T13:45:34;2.40;;;1.02;;
21192;SDS011;10754;51.106;7.164;2023-09-19T13:48:00;1.65;;;0.80;;
21192;SDS011;10754;51.106;7.164;2023-09-19T13:50:25;2.53;;;0.80;;
21192;SDS011;10754;51.106;7.164;2023-09-19T13:52:51;2.30;;;1.10;;
21192;SDS011;10754;51.106;7.164;2023-09-19T13:55:19;1.60;;;0.82;;
21192;SDS011;10754;51.106;7.164;2023-09-19T13:57:45;1.90;;;0.90;;
21192;SDS011;10754;51.106;7.164;2023-09-19T14:00:12;1.77;;;0.80;;
21192;SDS011;10754;51.106;7.164;2023-09-19T14:02:41;3.42;;;1.05;;
21192;SDS011;10754;51.106;7.164;2023-09-19T14:05:09;2.58;;;0.82;;
21192;SDS011;10754;51.106;7.164;2023-09-19T14:07:37;3.22;;;0.95;;
21192;SDS011;10754;51.106;7.164;2023-09-19T14:10:03;3.10;;;1.27;;
21192;SDS011;10754;51.106;7.164;2023-09-19T14:12:32;1.67;;;0.88;;
21192;SDS011;10754;51.106;7.164;2023-09-19T14:14:59;1.48;;;0.60;;
21192;SDS011;10754;51.106;7.164;2023-09-19T14:17:25;1.88;;;0.70;;
21192;SDS011;10754;51.106;7.164;2023-09-19T14:19:51;1.63;;;0.82;;
21192;SDS011;10754;51.106;7.164;2023-09-19T14:22:17;1.58;;;0.68;;
21192;SDS011;10754;51.106;7.164;2023-09-19T14:24:43;3.97;;;0.93;;
21192;SDS011;10754;51.106;7.164;2023-09-19T14:27:08;1.77;;;0.70;;
21192;SDS011;10754;51.106;7.164;2023-09-19T14:29:34;2.58;;;0.73;;
21192;SDS011;10754;51.106;7.164;2023-09-19T14:32:00;2.42;;;0.57;;
21192;SDS011;10754;51.106;7.164;2023-09-19T14:34:25;1.38;;;0.80;;
21192;SDS011;10754;51.106;7.164;2023-09-19T14:36:51;1.58;;;0.77;;
21192;SDS011;10754;51.106;7.164;2023-09-19T14:39:16;1.83;;;0.57;;
21192;SDS011;10754;51.106;7.164;2023-09-19T14:41:42;2.35;;;0.73;;
21192;SDS011;10754;51.106;7.164;2023-09-19T14:44:07;2.15;;;0.85;;
21192;SDS011;10754;51.106;7.164;2023-09-19T14:46:35;1.45;;;0.47;;
21192;SDS011;10754;51.106;7.164;2023-09-19T14:49:01;1.60;;;0.60;;
21192;SDS011;10754;51.106;7.164;2023-09-19T14:51:29;1.92;;;0.95;;
21192;SDS011;10754;51.106;7.164;2023-09-19T14:53:55;4.53;;;1.10;;
21192;SDS011;10754;51.106;7.164;2023-09-19T14:56:21;1.23;;;0.63;;
21192;SDS011;10754;51.106;7.164;2023-09-19T14:58:48;3.88;;;0.80;;
21192;SDS011;10754;51.106;7.164;2023-09-19T15:01:14;0.93;;;0.50;;
21192;SDS011;10754;51.106;7.164;2023-09-19T15:03:40;2.75;;;0.60;;
21192;SDS011;10754;51.106;7.164;2023-09-19T15:06:07;4.40;;;0.98;;
21192;SDS011;10754;51.106;7.164;2023-09-19T15:08:40;4.43;;;0.80;;
21192;SDS011;10754;51.106;7.164;2023-09-19T15:11:10;2.83;;;1.00;;
21192;SDS011;10754;51.106;7.164;2023-09-19T15:13:37;2.92;;;1.00;;
21192;SDS011;10754;51.106;7.164;2023-09-19T15:16:04;1.80;;;0.68;;
21192;SDS011;10754;51.106;7.164;2023-09-19T15:18:33;3.63;;;1.00;;
21192;SDS011;10754;51.106;7.164;2023-09-19T15:21:02;1.83;;;0.95;;
21192;SDS011;10754;51.106;7.164;2023-09-19T15:23:29;1.58;;;0.73;;
21192;SDS011;10754;51.106;7.164;2023-09-19T15:25:56;1.45;;;0.70;;
21192;SDS011;10754;51.106;7.164;2023-09-19T15:28:22;2.30;;;0.70;;
21192;SDS011;10754;51.106;7.164;2023-09-19T15:30:48;2.65;;;0.85;;
21192;SDS011;10754;51.106;7.164;2023-09-19T15:33:14;2.17;;;0.80;;
21192;SDS011;10754;51.106;7.164;2023-09-19T15:35:40;2.35;;;0.70;;
21192;SDS011;10754;51.106;7.164;2023-09-19T15:38:05;2.10;;;0.70;;
21192;SDS011;10754;51.106;7.164;2023-09-19T15:40:32;2.10;;;0.50;;
21192;SDS011;10754;51.106;7.164;2023-09-19T15:42:59;2.30;;;0.70;;
21192;SDS011;10754;51.106;7.164;2023-09-19T15:45:25;3.03;;;0.88;;
21192;SDS011;10754;51.106;7.164;2023-09-19T15:47:51;3.83;;;0.80;;